sensor_id;sensor_type;location;lat;lon;timestamp;P1;durP1;ratioP1;P2;durP2;ratioP2
66607;SDS011;53462;39.616;8.824;2024-03-23T00:56:17;10.40;;;4.88;;
66607;SDS011;53462;39.616;8.824;2024-03-23T00:58:43;10.40;;;5.38;;
66607;SDS011;53462;39.616;8.824;2024-03-23T01:01:09;8.00;;;5.03;;
66607;SDS011;53462;39.616;8.824;2024-03-23T01:03:35;10.60;;;5.28;;
66607;SDS011;53462;39.616;8.824;2024-03-23T01:06:01;12.65;;;4.88;;
66607;SDS011;53462;39.616;8.824;2024-03-23T01:08:28;9.10;;;4.95;;
66607;SDS011;53462;39.616;8.824;2024-03-23T01:10:57;9.27;;;4.75;;
66607;SDS011;53462;39.616;8.824;2024-03-23T01:13:27;9.40;;;4.95;;
66607;SDS011;53462;39.616;8.824;2024-03-23T01:15:53;8.00;;;5.45;;
66607;SDS011;53462;39.616;8.824;2024-03-23T01:18:21;8.10;;;5.47;;
66607;SDS011;53462;39.616;8.824;2024-03-23T01:20:47;12.07;;;6.20;;
66607;SDS011;53462;39.616;8.824;2024-03-23T01:23:13;10.52;;;5.80;;
66607;SDS011;53462;39.616;8.824;2024-03-23T01:25:39;10.27;;;6.03;;
66607;SDS011;53462;39.616;8.824;2024-03-23T01:28:06;9.35;;;5.30;;
66607;SDS011;53462;39.616;8.824;2024-03-23T01:30:32;9.20;;;5.57;;
66607;SDS011;53462;39.616;8.824;2024-03-23T01:32:59;8.60;;;5.32;;
66607;SDS011;53462;39.616;8.824;2024-03-23T01:35:24;9.85;;;5.55;;
66607;SDS011;53462;39.616;8.824;2024-03-23T01:37:50;11.20;;;5.97;;
66607;SDS011;53462;39.616;8.824;2024-03-23T01:40:16;14.65;;;6.00;;
66607;SDS011;53462;39.616;8.824;2024-03-23T01:42:42;10.15;;;6.05;;
66607;SDS011;53462;39.616;8.824;2024-03-23T01:45:20;8.85;;;4.97;;
66607;SDS011;53462;39.616;8.824;2024-03-23T01:47:46;12.43;;;5.80;;
66607;SDS011;53462;39.616;8.824;2024-03-23T01:50:12;9.30;;;5.20;;
66607;SDS011;53462;39.616;8.824;2024-03-23T01:52:39;7.68;;;4.70;;
66607;SDS011;53462;39.616;8.824;2024-03-23T01:55:05;9.40;;;5.15;;
66607;SDS011;53462;39.616;8.824;2024-03-23T01:57:31;9.13;;;4.95;;
66607;SDS011;53462;39.616;8.824;2024-03-23T01:59:57;8.55;;;4.90;;
66607;SDS011;53462;39.616;8.824;2024-03-23T02:02:26;11.63;;;5.10;;
66607;SDS011;53462;39.616;8.824;2024-03-23T02:04:52;10.32;;;4.25;;
66607;SDS011;53462;39.616;8.824;2024-03-23T02:07:18;9.32;;;3.70;;
66607;SDS011;53462;39.616;8.824;2024-03-23T02:09:44;8.30;;;3.80;;
66607;SDS011;53462;39.616;8.824;2024-03-23T02:12:10;6.75;;;3.35;;
66607;SDS011;53462;39.616;8.824;2024-03-23T02:14:36;6.70;;;3.85;;
66607;SDS011;53462;39.616;8.824;2024-03-23T02:17:02;10.10;;;4.68;;
66607;SDS011;53462;39.616;8.824;2024-03-23T02:19:29;8.30;;;4.80;;
66607;SDS011;53462;39.616;8.824;2024-03-23T02:21:55;8.40;;;4.47;;
66607;SDS011;53462;39.616;8.824;2024-03-23T02:24:20;7.28;;;4.30;;
66607;SDS011;53462;39.616;8.824;2024-03-23T02:26:46;11.70;;;4.82;;
66607;SDS011;53462;39.616;8.824;2024-03-23T02:29:14;10.25;;;4.15;;
66607;SDS011;53462;39.616;8.824;2024-03-23T02:31:40;9.05;;;4.45;;
66607;SDS011;53462;39.616;8.824;2024-03-23T02:34:06;8.60;;;4.45;;
66607;SDS011;53462;39.616;8.824;2024-03-23T02:36:32;8.25;;;4.70;;
66607;SDS011;53462;39.616;8.824;2024-03-23T02:38:57;10.98;;;4.05;;
66607;SDS011;53462;39.616;8.824;2024-03-23T02:41:23;7.03;;;4.28;;
66607;SDS011;53462;39.616;8.824;2024-03-23T02:43:50;13.27;;;4.32;;
66607;SDS011;53462;39.616;8.824;2024-03-23T02:46:15;6.35;;;4.45;;
66607;SDS011;53462;39.616;8.824;2024-03-23T02:48:41;9.45;;;4.38;;
66607;SDS011;53462;39.616;8.824;2024-03-23T02:51:08;5.63;;;3.65;;
66607;SDS011;53462;39.616;8.824;2024-03-23T02:53:34;6.95;;;4.20;;
66607;SDS011;53462;39.616;8.824;2024-03-23T02:56:01;7.57;;;3.97;;
66607;SDS011;53462;39.616;8.824;2024-03-23T02:58:27;6.32;;;4.03;;
66607;SDS011;53462;39.616;8.824;2024-03-23T03:00:53;7.95;;;3.80;;
66607;SDS011;53462;39.616;8.824;2024-03-23T03:03:18;8.82;;;4.13;;
66607;SDS011;53462;39.616;8.824;2024-03-23T03:05:44;5.57;;;3.40;;
66607;SDS011;53462;39.616;8.824;2024-03-23T03:08:10;7.57;;;4.13;;
66607;SDS011;53462;39.616;8.824;2024-03-23T03:10:36;6.35;;;3.92;;
66607;SDS011;53462;39.616;8.824;2024-03-23T03:13:02;6.70;;;3.80;;
66607;SDS011;53462;39.616;8.824;2024-03-23T03:15:29;5.68;;;3.65;;
66607;SDS011;53462;39.616;8.824;2024-03-23T03:17:55;5.97;;;3.42;;
66607;SDS011;53462;39.616;8.824;2024-03-23T03:20:21;9.98;;;3.90;;
66607;SDS011;53462;39.616;8.824;2024-03-23T03:22:48;7.22;;;3.88;;
66607;SDS011;53462;39.616;8.824;2024-03-23T03:25:14;7.38;;;3.88;;
66607;SDS011;53462;39.616;8.824;2024-03-23T03:27:40;6.47;;;3.70;;
66607;SDS011;53462;39.616;8.824;2024-03-23T03:30:06;8.73;;;3.60;;
66607;SDS011;53462;39.616;8.824;2024-03-23T03:32:34;8.65;;;3.90;;
66607;SDS011;53462;39.616;8.824;2024-03-23T03:35:00;6.65;;;3.63;;
66607;SDS011;53462;39.616;8.824;2024-03-23T03:37:27;7.15;;;3.72;;
66607;SDS011;53462;39.616;8.824;2024-03-23T03:39:53;8.57;;;3.67;;
66607;SDS011;53462;39.616;8.824;2024-03-23T03:42:19;7.50;;;3.80;;
66607;SDS011;53462;39.616;8.824;2024-03-23T03:44:45;10.77;;;4.07;;
66607;SDS011;53462;39.616;8.824;2024-03-23T03:47:11;6.63;;;4.07;;
66607;SDS011;53462;39.616;8.824;2024-03-23T03:49:37;8.57;;;3.40;;
66607;SDS011;53462;39.616;8.824;2024-03-23T03:52:04;10.50;;;4.20;;
66607;SDS011;53462;39.616;8.824;2024-03-23T03:54:30;10.98;;;3.90;;
66607;SDS011;53462;39.616;8.824;2024-03-23T03:56:56;6.35;;;3.60;;
66607;SDS011;53462;39.616;8.824;2024-03-23T03:59:22;5.20;;;3.45;;
66607;SDS011;53462;39.616;8.824;2024-03-23T04:01:48;6.65;;;3.95;;
66607;SDS011;53462;39.616;8.824;2024-03-23T04:04:14;6.25;;;3.60;;
66607;SDS011;53462;39.616;8.824;2024-03-23T04:06:42;8.10;;;3.58;;
66607;SDS011;53462;39.616;8.824;2024-03-23T04:09:09;4.70;;;3.35;;
66607;SDS011;53462;39.616;8.824;2024-03-23T04:11:35;6.75;;;3.67;;
66607;SDS011;53462;39.616;8.824;2024-03-23T04:14:01;8.02;;;4.10;;
66607;SDS011;53462;39.616;8.824;2024-03-23T04:16:27;7.97;;;3.58;;
66607;SDS011;53462;39.616;8.824;2024-03-23T04:18:54;7.28;;;3.65;;
66607;SDS011;53462;39.616;8.824;2024-03-23T04:21:21;5.47;;;3.50;;
66607;SDS011;53462;39.616;8.824;2024-03-23T04:23:47;9.55;;;4.05;;
66607;SDS011;53462;39.616;8.824;2024-03-23T04:26:13;10.20;;;3.60;;
66607;SDS011;53462;39.616;8.824;2024-03-23T04:28:40;7.97;;;3.33;;
66607;SDS011;53462;39.616;8.824;2024-03-23T04:31:06;7.03;;;3.30;;
66607;SDS011;53462;39.616;8.824;2024-03-23T04:33:32;9.48;;;3.97;;
66607;SDS011;53462;39.616;8.824;2024-03-23T04:35:58;7.43;;;3.95;;
66607;SDS011;53462;39.616;8.824;2024-03-23T04:38:24;8.30;;;3.88;;
66607;SDS011;53462;39.616;8.824;2024-03-23T04:40:56;9.55;;;3.53;;
66607;SDS011;53462;39.616;8.824;2024-03-23T04:43:23;6.75;;;3.60;;
66607;SDS011;53462;39.616;8.824;2024-03-23T04:45:50;7.47;;;4.30;;
66607;SDS011;53462;39.616;8.824;2024-03-23T04:48:16;8.32;;;3.78;;
66607;SDS011;53462;39.616;8.824;2024-03-23T04:50:44;7.35;;;4.18;;
66607;SDS011;53462;39.616;8.824;2024-03-23T04:53:11;7.65;;;4.45;;
66607;SDS011;53462;39.616;8.824;2024-03-23T04:55:37;8.85;;;5.53;;
66607;SDS011;53462;39.616;8.824;2024-03-23T04:58:03;9.48;;;5.32;;
66607;SDS011;53462;39.616;8.824;2024-03-23T05:00:29;11.00;;;5.45;;
66607;SDS011;53462;39.616;8.824;2024-03-23T05:02:55;9.18;;;5.25;;
66607;SDS011;53462;39.616;8.824;2024-03-23T05:05:21;10.35;;;5.28;;
66607;SDS011;53462;39.616;8.824;2024-03-23T05:07:47;7.95;;;5.22;;
66607;SDS011;53462;39.616;8.824;2024-03-23T05:10:13;8.45;;;5.35;;
66607;SDS011;53462;39.616;8.824;2024-03-23T05:12:39;9.45;;;5.15;;
66607;SDS011;53462;39.616;8.824;2024-03-23T05:15:05;8.52;;;5.25;;
66607;SDS011;53462;39.616;8.824;2024-03-23T05:17:33;6.95;;;4.63;;
66607;SDS011;53462;39.616;8.824;2024-03-23T05:19:59;10.77;;;4.70;;
66607;SDS011;53462;39.616;8.824;2024-03-23T05:22:25;9.55;;;4.47;;
66607;SDS011;53462;39.616;8.824;2024-03-23T05:24:52;9.65;;;4.70;;
66607;SDS011;53462;39.616;8.824;2024-03-23T05:27:18;10.85;;;4.80;;
66607;SDS011;53462;39.616;8.824;2024-03-23T05:29:44;7.57;;;4.30;;
66607;SDS011;53462;39.616;8.824;2024-03-23T05:32:11;11.35;;;5.43;;
66607;SDS011;53462;39.616;8.824;2024-03-23T05:34:36;6.75;;;4.35;;
66607;SDS011;53462;39.616;8.824;2024-03-23T05:37:02;10.82;;;5.05;;
66607;SDS011;53462;39.616;8.824;2024-03-23T05:39:28;11.15;;;4.80;;
66607;SDS011;53462;39.616;8.824;2024-03-23T05:41:54;8.02;;;4.60;;
66607;SDS011;53462;39.616;8.824;2024-03-23T05:44:20;9.32;;;4.35;;
66607;SDS011;53462;39.616;8.824;2024-03-23T05:46:46;9.23;;;4.40;;
66607;SDS011;53462;39.616;8.824;2024-03-23T05:49:14;9.45;;;4.63;;
66607;SDS011;53462;39.616;8.824;2024-03-23T05:51:41;6.32;;;4.50;;
66607;SDS011;53462;39.616;8.824;2024-03-23T05:54:07;7.50;;;3.97;;
66607;SDS011;53462;39.616;8.824;2024-03-23T05:56:32;9.38;;;4.60;;
66607;SDS011;53462;39.616;8.824;2024-03-23T05:58:58;9.25;;;4.07;;
66607;SDS011;53462;39.616;8.824;2024-03-23T06:01:24;6.63;;;3.92;;
66607;SDS011;53462;39.616;8.824;2024-03-23T06:03:54;9.45;;;4.65;;
66607;SDS011;53462;39.616;8.824;2024-03-23T06:06:20;8.98;;;4.82;;
66607;SDS011;53462;39.616;8.824;2024-03-23T06:08:45;9.90;;;4.57;;
66607;SDS011;53462;39.616;8.824;2024-03-23T06:11:11;7.50;;;4.18;;
66607;SDS011;53462;39.616;8.824;2024-03-23T06:13:37;11.40;;;5.05;;
66607;SDS011;53462;39.616;8.824;2024-03-23T06:16:03;9.20;;;4.80;;
66607;SDS011;53462;39.616;8.824;2024-03-23T06:18:30;9.88;;;4.50;;
66607;SDS011;53462;39.616;8.824;2024-03-23T06:20:56;7.50;;;4.40;;
66607;SDS011;53462;39.616;8.824;2024-03-23T06:23:22;7.32;;;4.20;;
66607;SDS011;53462;39.616;8.824;2024-03-23T06:25:48;12.10;;;4.40;;
66607;SDS011;53462;39.616;8.824;2024-03-23T06:28:14;8.38;;;4.32;;
66607;SDS011;53462;39.616;8.824;2024-03-23T06:30:40;7.40;;;4.07;;
66607;SDS011;53462;39.616;8.824;2024-03-23T06:33:06;7.30;;;4.18;;
66607;SDS011;53462;39.616;8.824;2024-03-23T06:35:32;8.05;;;4.10;;
66607;SDS011;53462;39.616;8.824;2024-03-23T06:37:57;8.23;;;3.80;;
66607;SDS011;53462;39.616;8.824;2024-03-23T06:40:24;6.22;;;3.50;;
66607;SDS011;53462;39.616;8.824;2024-03-23T06:42:49;7.55;;;3.92;;
66607;SDS011;53462;39.616;8.824;2024-03-23T06:45:16;4.93;;;2.90;;
66607;SDS011;53462;39.616;8.824;2024-03-23T06:47:44;7.10;;;3.40;;
66607;SDS011;53462;39.616;8.824;2024-03-23T06:50:10;7.60;;;3.35;;
66607;SDS011;53462;39.616;8.824;2024-03-23T06:52:36;6.82;;;3.50;;
66607;SDS011;53462;39.616;8.824;2024-03-23T06:55:02;7.57;;;3.15;;
66607;SDS011;53462;39.616;8.824;2024-03-23T06:57:30;7.05;;;2.92;;
66607;SDS011;53462;39.616;8.824;2024-03-23T06:59:56;7.15;;;3.10;;
66607;SDS011;53462;39.616;8.824;2024-03-23T07:02:22;8.23;;;3.30;;
66607;SDS011;53462;39.616;8.824;2024-03-23T07:04:48;5.15;;;2.80;;
66607;SDS011;53462;39.616;8.824;2024-03-23T07:07:14;7.47;;;2.65;;
66607;SDS011;53462;39.616;8.824;2024-03-23T07:09:40;6.18;;;2.60;;
66607;SDS011;53462;39.616;8.824;2024-03-23T07:12:06;6.00;;;2.75;;
66607;SDS011;53462;39.616;8.824;2024-03-23T07:14:32;5.40;;;2.38;;
66607;SDS011;53462;39.616;8.824;2024-03-23T07:16:58;3.58;;;2.20;;
66607;SDS011;53462;39.616;8.824;2024-03-23T07:19:24;5.78;;;2.60;;
66607;SDS011;53462;39.616;8.824;2024-03-23T07:21:50;5.60;;;2.30;;
66607;SDS011;53462;39.616;8.824;2024-03-23T07:24:15;4.80;;;2.13;;
66607;SDS011;53462;39.616;8.824;2024-03-23T07:26:41;4.05;;;2.33;;
66607;SDS011;53462;39.616;8.824;2024-03-23T07:29:07;5.60;;;2.10;;
66607;SDS011;53462;39.616;8.824;2024-03-23T07:31:33;4.50;;;2.28;;
66607;SDS011;53462;39.616;8.824;2024-03-23T07:33:59;4.13;;;2.10;;
66607;SDS011;53462;39.616;8.824;2024-03-23T07:36:25;6.32;;;2.40;;
66607;SDS011;53462;39.616;8.824;2024-03-23T07:38:51;3.95;;;2.10;;
66607;SDS011;53462;39.616;8.824;2024-03-23T07:41:18;3.50;;;1.90;;
66607;SDS011;53462;39.616;8.824;2024-03-23T07:43:45;7.55;;;2.05;;
66607;SDS011;53462;39.616;8.824;2024-03-23T07:46:12;5.13;;;1.73;;
66607;SDS011;53462;39.616;8.824;2024-03-23T07:48:41;4.57;;;2.00;;
66607;SDS011;53462;39.616;8.824;2024-03-23T07:51:13;5.22;;;2.45;;
66607;SDS011;53462;39.616;8.824;2024-03-23T07:53:43;5.03;;;1.92;;
66607;SDS011;53462;39.616;8.824;2024-03-23T07:56:14;3.88;;;2.25;;
66607;SDS011;53462;39.616;8.824;2024-03-23T07:58:40;5.65;;;2.00;;
66607;SDS011;53462;39.616;8.824;2024-03-23T08:01:11;5.38;;;2.30;;
66607;SDS011;53462;39.616;8.824;2024-03-23T08:03:40;7.78;;;2.10;;
66607;SDS011;53462;39.616;8.824;2024-03-23T08:08:34;4.90;;;2.00;;
66607;SDS011;53462;39.616;8.824;2024-03-23T08:11:00;10.07;;;2.65;;
66607;SDS011;53462;39.616;8.824;2024-03-23T08:13:26;4.90;;;2.80;;
66607;SDS011;53462;39.616;8.824;2024-03-23T08:15:55;6.43;;;2.70;;
66607;SDS011;53462;39.616;8.824;2024-03-23T08:18:25;7.55;;;3.03;;
66607;SDS011;53462;39.616;8.824;2024-03-23T08:20:58;9.40;;;3.50;;
66607;SDS011;53462;39.616;8.824;2024-03-23T08:23:25;8.80;;;3.33;;
66607;SDS011;53462;39.616;8.824;2024-03-23T08:25:59;5.03;;;3.10;;
66607;SDS011;53462;39.616;8.824;2024-03-23T08:28:26;8.73;;;3.58;;
66607;SDS011;53462;39.616;8.824;2024-03-23T08:30:53;7.22;;;3.63;;
66607;SDS011;53462;39.616;8.824;2024-03-23T08:33:19;5.72;;;3.10;;
66607;SDS011;53462;39.616;8.824;2024-03-23T08:38:22;7.82;;;3.40;;
66607;SDS011;53462;39.616;8.824;2024-03-23T08:40:56;5.00;;;3.10;;
66607;SDS011;53462;39.616;8.824;2024-03-23T08:43:23;4.20;;;2.30;;
66607;SDS011;53462;39.616;8.824;2024-03-23T08:45:49;5.57;;;2.55;;
66607;SDS011;53462;39.616;8.824;2024-03-23T08:48:15;5.38;;;2.35;;
66607;SDS011;53462;39.616;8.824;2024-03-23T08:50:41;5.10;;;2.60;;
66607;SDS011;53462;39.616;8.824;2024-03-23T08:53:07;3.90;;;2.70;;
66607;SDS011;53462;39.616;8.824;2024-03-23T08:55:33;6.90;;;2.17;;
66607;SDS011;53462;39.616;8.824;2024-03-23T08:57:59;4.70;;;2.40;;
66607;SDS011;53462;39.616;8.824;2024-03-23T09:00:25;4.75;;;2.15;;
66607;SDS011;53462;39.616;8.824;2024-03-23T09:02:51;4.03;;;2.28;;
66607;SDS011;53462;39.616;8.824;2024-03-23T09:05:18;5.50;;;2.20;;
66607;SDS011;53462;39.616;8.824;2024-03-23T09:07:44;5.35;;;2.28;;
66607;SDS011;53462;39.616;8.824;2024-03-23T09:10:10;6.22;;;2.55;;
66607;SDS011;53462;39.616;8.824;2024-03-23T09:12:36;4.63;;;2.33;;
66607;SDS011;53462;39.616;8.824;2024-03-23T09:15:02;7.47;;;2.38;;
66607;SDS011;53462;39.616;8.824;2024-03-23T09:17:28;4.68;;;2.20;;
66607;SDS011;53462;39.616;8.824;2024-03-23T09:19:54;4.05;;;2.00;;
66607;SDS011;53462;39.616;8.824;2024-03-23T09:22:20;7.45;;;2.20;;
66607;SDS011;53462;39.616;8.824;2024-03-23T09:24:46;3.22;;;1.95;;
66607;SDS011;53462;39.616;8.824;2024-03-23T09:27:12;5.03;;;2.05;;
66607;SDS011;53462;39.616;8.824;2024-03-23T09:29:38;4.22;;;2.00;;
66607;SDS011;53462;39.616;8.824;2024-03-23T09:32:04;3.20;;;1.98;;
66607;SDS011;53462;39.616;8.824;2024-03-23T09:34:30;2.92;;;1.83;;
66607;SDS011;53462;39.616;8.824;2024-03-23T09:36:56;6.97;;;2.30;;
66607;SDS011;53462;39.616;8.824;2024-03-23T09:39:22;5.75;;;2.40;;
66607;SDS011;53462;39.616;8.824;2024-03-23T09:41:48;5.68;;;2.33;;
66607;SDS011;53462;39.616;8.824;2024-03-23T09:44:14;4.40;;;2.67;;
66607;SDS011;53462;39.616;8.824;2024-03-23T09:46:40;4.53;;;2.50;;
66607;SDS011;53462;39.616;8.824;2024-03-23T09:49:09;4.35;;;2.50;;
66607;SDS011;53462;39.616;8.824;2024-03-23T09:51:36;4.32;;;2.60;;
66607;SDS011;53462;39.616;8.824;2024-03-23T09:54:03;5.90;;;2.60;;
66607;SDS011;53462;39.616;8.824;2024-03-23T09:56:29;6.25;;;2.55;;
66607;SDS011;53462;39.616;8.824;2024-03-23T09:59:02;4.95;;;2.40;;
66607;SDS011;53462;39.616;8.824;2024-03-23T10:03:55;4.32;;;2.53;;
66607;SDS011;53462;39.616;8.824;2024-03-23T10:06:23;4.88;;;2.40;;
66607;SDS011;53462;39.616;8.824;2024-03-23T10:08:52;5.22;;;2.63;;
66607;SDS011;53462;39.616;8.824;2024-03-23T10:11:20;4.40;;;2.45;;
66607;SDS011;53462;39.616;8.824;2024-03-23T10:13:47;5.28;;;2.10;;
66607;SDS011;53462;39.616;8.824;2024-03-23T10:16:20;3.55;;;2.05;;
66607;SDS011;53462;39.616;8.824;2024-03-23T10:18:47;5.95;;;2.50;;
66607;SDS011;53462;39.616;8.824;2024-03-23T10:21:14;4.30;;;2.53;;
66607;SDS011;53462;39.616;8.824;2024-03-23T10:23:41;4.57;;;2.55;;
66607;SDS011;53462;39.616;8.824;2024-03-23T10:26:24;7.43;;;2.88;;
66607;SDS011;53462;39.616;8.824;2024-03-23T10:28:54;6.67;;;3.30;;
66607;SDS011;53462;39.616;8.824;2024-03-23T10:31:28;7.78;;;2.67;;
66607;SDS011;53462;39.616;8.824;2024-03-23T10:33:56;4.32;;;2.53;;
66607;SDS011;53462;39.616;8.824;2024-03-23T10:36:22;6.38;;;2.70;;
66607;SDS011;53462;39.616;8.824;2024-03-23T10:38:50;5.72;;;2.20;;
66607;SDS011;53462;39.616;8.824;2024-03-23T10:41:17;5.38;;;2.40;;
66607;SDS011;53462;39.616;8.824;2024-03-23T10:43:47;5.75;;;2.47;;
66607;SDS011;53462;39.616;8.824;2024-03-23T10:46:14;4.75;;;2.30;;
66607;SDS011;53462;39.616;8.824;2024-03-23T10:48:40;4.72;;;2.70;;
66607;SDS011;53462;39.616;8.824;2024-03-23T10:51:08;5.50;;;2.42;;
66607;SDS011;53462;39.616;8.824;2024-03-23T10:53:35;8.80;;;2.78;;
66607;SDS011;53462;39.616;8.824;2024-03-23T10:56:02;4.20;;;2.30;;
66607;SDS011;53462;39.616;8.824;2024-03-23T10:58:30;4.47;;;1.52;;
66607;SDS011;53462;39.616;8.824;2024-03-23T11:00:57;3.53;;;1.98;;
66607;SDS011;53462;39.616;8.824;2024-03-23T11:03:30;7.55;;;1.67;;
66607;SDS011;53462;39.616;8.824;2024-03-23T11:06:02;3.45;;;2.00;;
66607;SDS011;53462;39.616;8.824;2024-03-23T11:08:30;3.17;;;1.50;;
66607;SDS011;53462;39.616;8.824;2024-03-23T11:13:40;4.45;;;1.60;;
66607;SDS011;53462;39.616;8.824;2024-03-23T11:16:22;3.20;;;1.60;;
66607;SDS011;53462;39.616;8.824;2024-03-23T11:18:49;4.80;;;1.70;;
66607;SDS011;53462;39.616;8.824;2024-03-23T11:24:20;4.32;;;1.60;;
66607;SDS011;53462;39.616;8.824;2024-03-23T11:26:47;4.90;;;1.90;;
66607;SDS011;53462;39.616;8.824;2024-03-23T11:29:14;3.45;;;1.70;;
66607;SDS011;53462;39.616;8.824;2024-03-23T11:31:48;2.53;;;1.60;;
66607;SDS011;53462;39.616;8.824;2024-03-23T11:34:16;4.53;;;1.85;;
66607;SDS011;53462;39.616;8.824;2024-03-23T11:36:42;3.05;;;1.80;;
66607;SDS011;53462;39.616;8.824;2024-03-23T11:39:12;3.72;;;1.70;;
66607;SDS011;53462;39.616;8.824;2024-03-23T11:41:52;2.67;;;1.60;;
66607;SDS011;53462;39.616;8.824;2024-03-23T11:44:22;3.33;;;1.60;;
66607;SDS011;53462;39.616;8.824;2024-03-23T11:46:50;6.82;;;2.15;;
66607;SDS011;53462;39.616;8.824;2024-03-23T11:49:28;4.00;;;1.70;;
66607;SDS011;53462;39.616;8.824;2024-03-23T11:51:55;3.85;;;1.67;;
66607;SDS011;53462;39.616;8.824;2024-03-23T11:54:25;3.38;;;1.98;;
66607;SDS011;53462;39.616;8.824;2024-03-23T11:57:04;3.83;;;1.65;;
66607;SDS011;53462;39.616;8.824;2024-03-23T11:59:37;5.43;;;2.90;;
66607;SDS011;53462;39.616;8.824;2024-03-23T12:02:06;3.03;;;1.50;;
66607;SDS011;53462;39.616;8.824;2024-03-23T12:04:32;3.70;;;1.75;;
66607;SDS011;53462;39.616;8.824;2024-03-23T12:07:14;3.42;;;2.25;;
66607;SDS011;53462;39.616;8.824;2024-03-23T12:09:41;6.00;;;2.38;;
66607;SDS011;53462;39.616;8.824;2024-03-23T12:12:11;4.28;;;1.73;;
66607;SDS011;53462;39.616;8.824;2024-03-23T12:17:08;3.35;;;1.70;;
66607;SDS011;53462;39.616;8.824;2024-03-23T12:19:37;3.63;;;1.70;;
66607;SDS011;53462;39.616;8.824;2024-03-23T12:22:04;4.70;;;1.95;;
66607;SDS011;53462;39.616;8.824;2024-03-23T12:24:31;5.45;;;1.90;;
66607;SDS011;53462;39.616;8.824;2024-03-23T12:27:03;5.43;;;1.65;;
66607;SDS011;53462;39.616;8.824;2024-03-23T12:29:30;4.18;;;1.88;;
66607;SDS011;53462;39.616;8.824;2024-03-23T12:32:01;3.20;;;1.63;;
66607;SDS011;53462;39.616;8.824;2024-03-23T12:34:28;4.35;;;1.67;;
66607;SDS011;53462;39.616;8.824;2024-03-23T12:36:55;2.38;;;1.60;;
66607;SDS011;53462;39.616;8.824;2024-03-23T12:39:21;2.78;;;1.70;;
66607;SDS011;53462;39.616;8.824;2024-03-23T12:41:47;9.20;;;1.85;;
66607;SDS011;53462;39.616;8.824;2024-03-23T12:44:18;3.65;;;1.90;;
66607;SDS011;53462;39.616;8.824;2024-03-23T12:46:44;3.30;;;1.90;;
66607;SDS011;53462;39.616;8.824;2024-03-23T12:49:10;3.72;;;1.65;;
66607;SDS011;53462;39.616;8.824;2024-03-23T12:51:36;5.97;;;2.08;;
66607;SDS011;53462;39.616;8.824;2024-03-23T12:54:03;2.00;;;1.50;;
66607;SDS011;53462;39.616;8.824;2024-03-23T12:56:29;4.93;;;1.80;;
66607;SDS011;53462;39.616;8.824;2024-03-23T12:58:56;2.90;;;1.60;;
66607;SDS011;53462;39.616;8.824;2024-03-23T13:01:25;4.43;;;2.15;;
66607;SDS011;53462;39.616;8.824;2024-03-23T13:03:51;2.90;;;1.45;;
66607;SDS011;53462;39.616;8.824;2024-03-23T13:06:18;3.95;;;1.85;;
66607;SDS011;53462;39.616;8.824;2024-03-23T13:08:45;3.92;;;1.60;;
66607;SDS011;53462;39.616;8.824;2024-03-23T13:11:11;4.28;;;1.80;;
66607;SDS011;53462;39.616;8.824;2024-03-23T13:13:38;3.85;;;1.70;;
66607;SDS011;53462;39.616;8.824;2024-03-23T13:16:04;3.72;;;2.05;;
66607;SDS011;53462;39.616;8.824;2024-03-23T13:18:31;4.15;;;1.55;;
66607;SDS011;53462;39.616;8.824;2024-03-23T13:20:58;3.63;;;1.48;;
66607;SDS011;53462;39.616;8.824;2024-03-23T13:23:24;2.28;;;1.35;;
66607;SDS011;53462;39.616;8.824;2024-03-23T13:25:55;4.28;;;1.75;;
66607;SDS011;53462;39.616;8.824;2024-03-23T13:28:22;5.32;;;1.60;;
66607;SDS011;53462;39.616;8.824;2024-03-23T13:30:51;5.72;;;1.60;;
66607;SDS011;53462;39.616;8.824;2024-03-23T13:33:21;3.38;;;1.50;;
66607;SDS011;53462;39.616;8.824;2024-03-23T13:35:51;4.03;;;1.60;;
66607;SDS011;53462;39.616;8.824;2024-03-23T13:38:18;3.30;;;1.42;;
66607;SDS011;53462;39.616;8.824;2024-03-23T13:43:17;2.30;;;1.70;;
66607;SDS011;53462;39.616;8.824;2024-03-23T13:45:43;3.67;;;1.50;;
66607;SDS011;53462;39.616;8.824;2024-03-23T13:48:10;4.30;;;1.80;;
66607;SDS011;53462;39.616;8.824;2024-03-23T13:50:36;5.63;;;1.80;;
66607;SDS011;53462;39.616;8.824;2024-03-23T13:53:02;2.63;;;1.80;;
66607;SDS011;53462;39.616;8.824;2024-03-23T13:55:27;4.32;;;1.60;;
66607;SDS011;53462;39.616;8.824;2024-03-23T13:57:53;3.30;;;1.65;;
66607;SDS011;53462;39.616;8.824;2024-03-23T14:00:20;3.10;;;1.80;;
66607;SDS011;53462;39.616;8.824;2024-03-23T14:02:46;4.78;;;1.70;;
66607;SDS011;53462;39.616;8.824;2024-03-23T14:05:12;4.22;;;1.83;;
66607;SDS011;53462;39.616;8.824;2024-03-23T14:07:38;2.42;;;1.50;;
66607;SDS011;53462;39.616;8.824;2024-03-23T14:10:04;3.30;;;1.73;;
66607;SDS011;53462;39.616;8.824;2024-03-23T14:12:32;4.15;;;1.98;;
66607;SDS011;53462;39.616;8.824;2024-03-23T14:14:58;4.70;;;2.30;;
66607;SDS011;53462;39.616;8.824;2024-03-23T14:17:24;4.50;;;2.17;;
66607;SDS011;53462;39.616;8.824;2024-03-23T14:19:51;3.58;;;2.00;;
66607;SDS011;53462;39.616;8.824;2024-03-23T14:22:17;4.72;;;2.00;;
66607;SDS011;53462;39.616;8.824;2024-03-23T14:24:48;3.63;;;1.90;;
66607;SDS011;53462;39.616;8.824;2024-03-23T14:27:14;3.92;;;1.90;;
66607;SDS011;53462;39.616;8.824;2024-03-23T14:29:40;4.43;;;1.98;;
66607;SDS011;53462;39.616;8.824;2024-03-23T14:32:06;3.88;;;2.10;;
66607;SDS011;53462;39.616;8.824;2024-03-23T14:34:32;4.68;;;2.20;;
66607;SDS011;53462;39.616;8.824;2024-03-23T14:36:58;4.50;;;2.10;;
66607;SDS011;53462;39.616;8.824;2024-03-23T14:39:25;4.28;;;1.90;;
66607;SDS011;53462;39.616;8.824;2024-03-23T14:41:51;3.75;;;1.80;;
66607;SDS011;53462;39.616;8.824;2024-03-23T14:44:17;4.32;;;1.60;;
66607;SDS011;53462;39.616;8.824;2024-03-23T14:46:42;8.68;;;3.85;;
66607;SDS011;53462;39.616;8.824;2024-03-23T14:49:14;3.08;;;2.00;;
66607;SDS011;53462;39.616;8.824;2024-03-23T14:51:43;2.75;;;2.00;;
66607;SDS011;53462;39.616;8.824;2024-03-23T14:54:09;3.90;;;2.00;;
66607;SDS011;53462;39.616;8.824;2024-03-23T14:56:35;3.60;;;2.45;;
66607;SDS011;53462;39.616;8.824;2024-03-23T14:59:02;4.07;;;2.17;;
66607;SDS011;53462;39.616;8.824;2024-03-23T15:01:28;5.95;;;2.50;;
66607;SDS011;53462;39.616;8.824;2024-03-23T15:03:54;3.35;;;2.17;;
66607;SDS011;53462;39.616;8.824;2024-03-23T15:06:20;3.60;;;2.20;;
66607;SDS011;53462;39.616;8.824;2024-03-23T15:08:46;5.20;;;2.40;;
66607;SDS011;53462;39.616;8.824;2024-03-23T15:11:12;4.93;;;2.58;;
66607;SDS011;53462;39.616;8.824;2024-03-23T15:13:38;3.67;;;2.13;;
66607;SDS011;53462;39.616;8.824;2024-03-23T15:16:04;7.50;;;2.80;;
66607;SDS011;53462;39.616;8.824;2024-03-23T15:18:31;3.80;;;2.08;;
66607;SDS011;53462;39.616;8.824;2024-03-23T15:21:02;6.13;;;2.13;;
66607;SDS011;53462;39.616;8.824;2024-03-23T15:23:31;3.00;;;1.90;;
66607;SDS011;53462;39.616;8.824;2024-03-23T15:25:58;4.93;;;1.80;;
66607;SDS011;53462;39.616;8.824;2024-03-23T15:28:25;3.30;;;1.98;;
66607;SDS011;53462;39.616;8.824;2024-03-23T15:30:53;2.92;;;1.90;;
66607;SDS011;53462;39.616;8.824;2024-03-23T15:33:23;3.90;;;1.90;;
66607;SDS011;53462;39.616;8.824;2024-03-23T15:35:49;5.22;;;2.00;;
66607;SDS011;53462;39.616;8.824;2024-03-23T15:38:15;4.32;;;2.20;;
66607;SDS011;53462;39.616;8.824;2024-03-23T15:40:41;3.60;;;2.13;;
66607;SDS011;53462;39.616;8.824;2024-03-23T15:43:07;4.30;;;2.58;;
66607;SDS011;53462;39.616;8.824;2024-03-23T15:45:33;4.75;;;2.40;;
66607;SDS011;53462;39.616;8.824;2024-03-23T15:47:59;6.95;;;2.58;;
66607;SDS011;53462;39.616;8.824;2024-03-23T15:50:25;4.35;;;2.60;;
66607;SDS011;53462;39.616;8.824;2024-03-23T15:52:50;4.15;;;2.03;;
66607;SDS011;53462;39.616;8.824;2024-03-23T15:55:16;5.88;;;2.30;;
66607;SDS011;53462;39.616;8.824;2024-03-23T15:57:42;4.78;;;2.30;;